Time;durP1;ratioP1;P1;durP2;ratioP2;P2;SDS_P1;SDS_P2;PMS_P1;PMS_P2;Temp;Humidity;BMP_temperature;BMP_pressure;BME280_temperature;BME280_humidity;BME280_pressure;Samples;Min_cycle;Max_cycle;Signal;HPM_P1;HPM_P2
2023/10/17 00:02:53;;;;;;;0.30;0.30;;;;;;;;;;5009445;28;20488;-74
2023/10/17 00:05:23;;;;;;;0.10;0.10;;;;;;;;;;5013501;28;20050;-74
2023/10/17 00:07:51;;;;;;;0.10;0.10;;;;;;;;;;5018225;28;20120;-73
2023/10/17 00:10:19;;;;;;;0.20;0.20;;;;;;;;;;5015177;28;20499;-74
2023/10/17 00:12:51;;;;;;;1.20;1.10;;;;;;;;;;5013520;28;20327;-74
2023/10/17 00:15:35;;;;;;;0.30;0.30;;;;;;;;;;5013849;28;20065;-73
2023/10/17 00:18:11;;;;;;;0.50;0.50;;;;;;;;;;5016407;28;20504;-74
2023/10/17 00:20:40;;;;;;;0.77;0.70;;;;;;;;;;5016199;28;20088;-74
2023/10/17 00:23:08;;;;;;;0.10;0.10;;;;;;;;;;5015913;28;20107;-74
2023/10/17 00:25:37;;;;;;;0.10;0.10;;;;;;;;;;5014695;28;20042;-74
2023/10/17 00:28:05;;;;;;;0.00;0.00;;;;;;;;;;5014275;28;20034;-74
2023/10/17 00:30:33;;;;;;;0.00;0.00;;;;;;;;;;4994280;28;20318;-74
2023/10/17 00:33:01;;;;;;;0.05;0.05;;;;;;;;;;5010779;28;20042;-73
2023/10/17 00:35:36;;;;;;;0.10;0.10;;;;;;;;;;4997568;28;20053;-74
2023/10/17 00:38:07;;;;;;;0.10;0.10;;;;;;;;;;4995960;28;20041;-74
2023/10/17 00:40:58;;;;;;;0.35;0.35;;;;;;;;;;5016436;28;20112;-74
2023/10/17 00:43:24;;;;;;;0.50;0.47;;;;;;;;;;5000086;28;20076;-73
2023/10/17 00:45:51;;;;;;;0.20;0.20;;;;;;;;;;5018608;28;20053;-74
2023/10/17 00:48:22;;;;;;;0.35;0.35;;;;;;;;;;5017194;28;20073;-74
2023/10/17 00:50:52;;;;;;;0.90;0.90;;;;;;;;;;5016137;28;20497;-74
2023/10/17 00:53:21;;;;;;;0.20;0.20;;;;;;;;;;5015067;28;20084;-73
2023/10/17 00:55:55;;;;;;;0.77;0.77;;;;;;;;;;5020618;28;20041;-74
2023/10/17 00:58:24;;;;;;;0.35;0.35;;;;;;;;;;5017247;28;20411;-74
2023/10/17 01:03:43;;;;;;;0.55;0.55;;;;;;;;;;5018482;28;20487;-74
2023/10/17 01:06:13;;;;;;;;;;;;;;;;;;5021002;28;20529;-74
2023/10/17 01:08:44;;;;;;;0.10;0.10;;;;;;;;;;4997568;28;19931;-74
2023/10/17 01:11:20;;;;;;;0.20;0.20;;;;;;;;;;5001536;28;20389;-74
2023/10/17 01:13:49;;;;;;;0.63;0.63;;;;;;;;;;5020113;28;20511;-74
2023/10/17 01:16:18;;;;;;;0.20;0.20;;;;;;;;;;5020653;28;20054;-74
2023/10/17 01:18:46;;;;;;;0.20;0.20;;;;;;;;;;5019690;28;20063;-74
2023/10/17 01:21:14;;;;;;;0.70;0.70;;;;;;;;;;5001453;28;20045;-74
2023/10/17 01:23:42;;;;;;;0.40;0.40;;;;;;;;;;5013763;28;20045;-74
2023/10/17 01:26:11;;;;;;;0.28;0.28;;;;;;;;;;4999715;28;20079;-74
2023/10/17 01:28:38;;;;;;;0.15;0.15;;;;;;;;;;5019180;28;20129;-74
2023/10/17 01:31:08;;;;;;;0.40;0.40;;;;;;;;;;5018012;28;20100;-74
2023/10/17 01:33:36;;;;;;;0.30;0.30;;;;;;;;;;5014882;28;20066;-73
2023/10/17 01:36:09;;;;;;;0.15;0.15;;;;;;;;;;5000019;28;20109;-73
2023/10/17 01:38:38;;;;;;;1.55;0.77;;;;;;;;;;5021273;28;20037;-74
2023/10/17 01:41:05;;;;;;;0.30;0.30;;;;;;;;;;5020122;28;20037;-74
2023/10/17 01:43:40;;;;;;;0.22;0.22;;;;;;;;;;5022000;28;20046;-74
2023/10/17 01:46:15;;;;;;;0.70;0.60;;;;;;;;;;5000193;28;20100;-73
2023/10/17 01:48:47;;;;;;;1.27;1.17;;;;;;;;;;5014039;28;20046;-73
2023/10/17 01:51:15;;;;;;;0.80;0.75;;;;;;;;;;5003050;28;20545;-74
2023/10/17 01:53:43;;;;;;;0.20;0.20;;;;;;;;;;5015948;28;20056;-74
2023/10/17 01:56:14;;;;;;;0.65;0.65;;;;;;;;;;5021583;28;20041;-74
2023/10/17 01:58:51;;;;;;;0.17;0.17;;;;;;;;;;4998663;28;20125;-74
2023/10/17 02:01:24;;;;;;;0.00;0.00;;;;;;;;;;5013936;28;20050;-74
2023/10/17 02:03:53;;;;;;;0.15;0.15;;;;;;;;;;4996135;28;20448;-74
2023/10/17 02:06:22;;;;;;;0.32;0.32;;;;;;;;;;5019427;28;20507;-74
2023/10/17 02:08:51;;;;;;;0.55;0.55;;;;;;;;;;5004245;28;20049;-74
2023/10/17 02:11:23;;;;;;;1.05;1.05;;;;;;;;;;5002369;28;20410;-74
2023/10/17 02:13:53;;;;;;;0.65;0.43;;;;;;;;;;4997751;28;20100;-74
2023/10/17 02:16:21;;;;;;;0.77;0.32;;;;;;;;;;5018202;28;20077;-73
2023/10/17 02:18:49;;;;;;;0.75;0.75;;;;;;;;;;5020075;28;20045;-73
2023/10/17 02:21:18;;;;;;;0.73;0.47;;;;;;;;;;4998948;28;20132;-74
2023/10/17 02:23:52;;;;;;;0.20;0.20;;;;;;;;;;5016895;28;20516;-75
2023/10/17 02:26:28;;;;;;;0.10;0.10;;;;;;;;;;5016890;28;20061;-72
2023/10/17 02:28:59;;;;;;;0.17;0.17;;;;;;;;;;5002560;28;20199;-74
2023/10/17 02:31:28;;;;;;;0.73;0.73;;;;;;;;;;5018716;28;20041;-75
2023/10/17 02:33:56;;;;;;;0.10;0.10;;;;;;;;;;4998715;28;20949;-75
2023/10/17 02:36:24;;;;;;;0.10;0.10;;;;;;;;;;4999386;28;20140;-74
2023/10/17 02:38:52;;;;;;;0.45;0.45;;;;;;;;;;5015343;28;20470;-74
2023/10/17 02:41:19;;;;;;;0.43;0.43;;;;;;;;;;5016710;28;20057;-74
2023/10/17 02:43:47;;;;;;;0.25;0.25;;;;;;;;;;5015335;28;20463;-74
2023/10/17 02:46:15;;;;;;;0.10;0.10;;;;;;;;;;5019118;28;20049;-74
2023/10/17 02:48:42;;;;;;;0.85;0.73;;;;;;;;;;5018831;28;20069;-74
2023/10/17 02:51:31;;;;;;;0.10;0.10;;;;;;;;;;4995939;28;20439;-74
2023/10/17 02:54:00;;;;;;;2.15;2.05;;;;;;;;;;5012476;28;20050;-74
2023/10/17 02:56:28;;;;;;;0.00;0.00;;;;;;;;;;5037395;23;20557;-68
2023/10/17 02:59:17;;;;;;;0.05;0.05;;;;;;;;;;5018061;28;20038;-69
2023/10/17 03:01:52;;;;;;;0.20;0.20;;;;;;;;;;4998297;28;20045;-68
2023/10/17 03:04:27;;;;;;;0.20;0.20;;;;;;;;;;5002533;28;20047;-69
2023/10/17 03:06:55;;;;;;;1.08;1.08;;;;;;;;;;4985242;28;20563;-69
2023/10/17 03:14:39;;;;;;;0.10;0.10;;;;;;;;;;4994709;28;20215;-68
2023/10/17 03:17:07;;;;;;;0.13;0.13;;;;;;;;;;5002617;28;20396;-68
2023/10/17 03:19:35;;;;;;;0.40;0.40;;;;;;;;;;4983045;28;20057;-69
2023/10/17 03:22:19;;;;;;;0.30;0.30;;;;;;;;;;4999140;28;20061;-69
2023/10/17 03:24:47;;;;;;;0.52;0.20;;;;;;;;;;4982187;28;20056;-69
2023/10/17 03:27:36;;;;;;;0.10;0.10;;;;;;;;;;5001955;28;20415;-69
2023/10/17 03:30:14;;;;;;;0.52;0.52;;;;;;;;;;5003348;28;20480;-69
2023/10/17 03:33:03;;;;;;;0.10;0.10;;;;;;;;;;4976539;28;20046;-70
2023/10/17 03:35:35;;;;;;;0.10;0.10;;;;;;;;;;5000525;28;20042;-69
2023/10/17 03:38:03;;;;;;;0.10;0.10;;;;;;;;;;5003332;28;20104;-69
2023/10/17 03:40:41;;;;;;;0.40;0.40;;;;;;;;;;4987803;28;20057;-67
2023/10/17 03:43:12;;;;;;;0.30;0.30;;;;;;;;;;5001697;28;20053;-68
2023/10/17 03:45:43;;;;;;;0.20;0.20;;;;;;;;;;5005232;28;20130;-68
2023/10/17 03:48:15;;;;;;;0.10;0.10;;;;;;;;;;5004584;28;20054;-69
2023/10/17 03:53:29;;;;;;;0.73;0.73;;;;;;;;;;5003576;28;20108;-68
2023/10/17 03:56:01;;;;;;;0.68;0.68;;;;;;;;;;5000427;28;20042;-68
2023/10/17 04:00:57;;;;;;;0.85;0.70;;;;;;;;;;5004422;28;20084;-68
2023/10/17 04:03:34;;;;;;;0.45;0.45;;;;;;;;;;5001892;28;21663;-69
2023/10/17 04:08:48;;;;;;;1.63;0.90;;;;;;;;;;5004936;28;20460;-69
2023/10/17 04:13:51;;;;;;;0.85;0.85;;;;;;;;;;4997054;28;20133;-69
2023/10/17 04:16:26;;;;;;;0.30;0.30;;;;;;;;;;4994558;28;20395;-69
2023/10/17 04:19:39;;;;;;;1.27;1.17;;;;;;;;;;5001367;28;20049;-69
2023/10/17 04:24:34;;;;;;;0.40;0.40;;;;;;;;;;5000863;28;20472;-69
2023/10/17 04:27:06;;;;;;;0.10;0.10;;;;;;;;;;5003727;28;20484;-69
2023/10/17 04:29:38;;;;;;;;;;;;;;;;;;5005860;28;20057;-69
2023/10/17 04:32:13;;;;;;;2.03;0.63;;;;;;;;;;5001754;28;19929;-69
2023/10/17 04:34:46;;;;;;;0.10;0.10;;;;;;;;;;4998410;28;20050;-69
2023/10/17 04:37:24;;;;;;;0.10;0.10;;;;;;;;;;5001008;28;20053;-68
2023/10/17 04:39:57;;;;;;;0.52;0.52;;;;;;;;;;4995617;28;20046;-69
2023/10/17 04:42:47;;;;;;;2.63;0.52;;;;;;;;;;4991575;28;20768;-69
2023/10/17 04:45:19;;;;;;;0.10;0.10;;;;;;;;;;4994082;28;20129;-69
2023/10/17 04:47:47;;;;;;;0.20;0.20;;;;;;;;;;4997991;28;20556;-69
2023/10/17 04:50:16;;;;;;;1.70;0.65;;;;;;;;;;4998505;28;20688;-69
2023/10/17 04:52:47;;;;;;;1.13;0.38;;;;;;;;;;4988532;28;20526;-69
2023/10/17 04:55:18;;;;;;;1.27;1.02;;;;;;;;;;4984905;28;20048;-69
2023/10/17 05:03:24;;;;;;;0.20;0.20;;;;;;;;;;4982996;28;20054;-70
2023/10/17 05:06:21;;;;;;;3.78;1.40;;;;;;;;;;4998298;28;20146;-69
2023/10/17 05:09:12;;;;;;;2.92;0.68;;;;;;;;;;4997116;28;20840;-71
2023/10/17 06:18:19;;;;;;;0.13;0.13;;;;;;;;;;5004762;28;20053;-74
2023/10/17 06:21:35;;;;;;;0.98;0.82;;;;;;;;;;5003064;28;20401;-73
2023/10/17 06:34:17;;;;;;;0.52;0.47;;;;;;;;;;5001951;28;20572;-73
2023/10/17 06:36:49;;;;;;;1.35;0.73;;;;;;;;;;5007318;28;20125;-73
2023/10/17 06:39:18;;;;;;;0.20;0.20;;;;;;;;;;5002646;28;20034;-74
2023/10/17 06:41:46;;;;;;;0.10;0.10;;;;;;;;;;5006996;28;20204;-73
2023/10/17 06:44:23;;;;;;;0.80;0.30;;;;;;;;;;4991377;28;20053;-73
2023/10/17 06:54:49;;;;;;;0.20;0.20;;;;;;;;;;5004110;28;20046;-73
2023/10/17 06:57:23;;;;;;;0.00;0.00;;;;;;;;;;5001633;28;20397;-73
2023/10/17 06:59:50;;;;;;;0.10;0.10;;;;;;;;;;4990327;28;20050;-74
2023/10/17 07:02:18;;;;;;;0.80;0.80;;;;;;;;;;5007964;28;20152;-72
2023/10/17 07:04:49;;;;;;;0.08;0.08;;;;;;;;;;5004957;28;20053;-72
2023/10/17 07:07:22;;;;;;;0.35;0.30;;;;;;;;;;5007967;28;20054;-73
2023/10/17 07:10:07;;;;;;;0.28;0.28;;;;;;;;;;5007061;28;20120;-73
2023/10/17 07:12:38;;;;;;;0.10;0.10;;;;;;;;;;5005634;28;20045;-73
2023/10/17 07:15:13;;;;;;;0.10;0.10;;;;;;;;;;5007965;28;20073;-73
2023/10/17 07:17:48;;;;;;;0.30;0.30;;;;;;;;;;5006769;28;20077;-72
2023/10/17 07:21:22;;;;;;;0.88;0.88;;;;;;;;;;4997645;28;20046;-73
2023/10/17 07:23:19;;;;;;;0.57;0.43;;;;;;;;;;4965848;28;20372;-72
2023/10/17 07:25:49;;;;;;;0.50;0.50;;;;;;;;;;4992929;28;20150;-73
2023/10/17 07:28:22;;;;;;;0.20;0.20;;;;;;;;;;4989969;28;20357;-73
2023/10/17 07:30:51;;;;;;;0.10;0.10;;;;;;;;;;4997785;28;22343;-74
2023/10/17 07:33:19;;;;;;;0.73;0.63;;;;;;;;;;4998694;28;20049;-72
2023/10/17 07:35:56;;;;;;;0.50;0.50;;;;;;;;;;4998331;28;20042;-75
2023/10/17 07:38:30;;;;;;;1.20;1.05;;;;;;;;;;4992660;28;20042;-72
2023/10/17 07:41:13;;;;;;;0.47;0.47;;;;;;;;;;4989417;28;20070;-73
2023/10/17 07:43:44;;;;;;;0.15;0.15;;;;;;;;;;4989027;28;20049;-72
2023/10/17 07:46:19;;;;;;;0.47;0.47;;;;;;;;;;4994221;28;20049;-73
2023/10/17 07:48:49;;;;;;;0.38;0.38;;;;;;;;;;5003596;28;20050;-72
2023/10/17 07:51:17;;;;;;;0.10;0.10;;;;;;;;;;5007158;28;20042;-74
2023/10/17 07:53:48;;;;;;;0.28;0.28;;;;;;;;;;5005815;28;20090;-73
2023/10/17 07:56:20;;;;;;;0.50;0.50;;;;;;;;;;5003981;28;20042;-73
2023/10/17 07:58:56;;;;;;;0.40;0.40;;;;;;;;;;5006955;28;20555;-74
2023/10/17 08:01:41;;;;;;;0.28;0.28;;;;;;;;;;5003053;28;20054;-73
2023/10/17 08:04:18;;;;;;;0.17;0.17;;;;;;;;;;5003078;28;20061;-75
2023/10/17 08:06:46;;;;;;;1.67;1.58;;;;;;;;;;5008947;28;20055;-75
2023/10/17 08:12:08;;;;;;;0.35;0.35;;;;;;;;;;5004174;28;20065;-74
2023/10/17 08:14:42;;;;;;;0.50;0.50;;;;;;;;;;5003973;28;20050;-74
2023/10/17 08:17:09;;;;;;;0.10;0.10;;;;;;;;;;5005916;28;20054;-73
2023/10/17 08:22:27;;;;;;;0.10;0.10;;;;;;;;;;5003750;28;20068;-72
2023/10/17 08:24:57;;;;;;;1.48;1.38;;;;;;;;;;5007333;28;20135;-74
2023/10/17 08:30:12;;;;;;;0.10;0.10;;;;;;;;;;5008030;28;20512;-68
2023/10/17 08:32:47;;;;;;;0.03;0.03;;;;;;;;;;5005428;28;20042;-69
2023/10/17 08:35:20;;;;;;;0.10;0.10;;;;;;;;;;5003963;28;20504;-69
2023/10/17 08:37:52;;;;;;;0.10;0.10;;;;;;;;;;5006332;28;20042;-69
2023/10/17 08:40:54;;;;;;;0.65;0.65;;;;;;;;;;5004473;28;20100;-69
2023/10/17 08:43:32;;;;;;;0.32;0.32;;;;;;;;;;4995170;28;20064;-68
2023/10/17 08:45:59;;;;;;;0.10;0.10;;;;;;;;;;4999074;28;20046;-69
2023/10/17 08:48:28;;;;;;;0.10;0.10;;;;;;;;;;4999855;28;20531;-69
2023/10/17 08:50:56;;;;;;;0.35;0.35;;;;;;;;;;5004896;28;20062;-69
2023/10/17 08:53:24;;;;;;;0.10;0.10;;;;;;;;;;5002126;28;20563;-69
2023/10/17 08:55:52;;;;;;;0.10;0.10;;;;;;;;;;5000810;28;20443;-69
2023/10/17 08:58:32;;;;;;;0.93;0.93;;;;;;;;;;5006231;28;20508;-69
2023/10/17 09:01:14;;;;;;;0.30;0.30;;;;;;;;;;5007950;28;20309;-69
2023/10/17 09:03:44;;;;;;;0.10;0.10;;;;;;;;;;5007489;28;20046;-70
2023/10/17 09:09:17;;;;;;;0.30;0.30;;;;;;;;;;5003988;28;20049;-69
2023/10/17 09:12:01;;;;;;;3.03;0.80;;;;;;;;;;5007541;28;20382;-72
2023/10/17 09:14:35;;;;;;;0.75;0.75;;;;;;;;;;4993459;28;20103;-73
2023/10/17 09:17:50;;;;;;;0.20;0.20;;;;;;;;;;5007234;28;20389;-73
2023/10/17 09:20:06;;;;;;;0.10;0.10;;;;;;;;;;4999970;28;20060;-72
2023/10/17 09:22:36;;;;;;;0.13;0.13;;;;;;;;;;4999430;28;20052;-71
2023/10/17 09:25:35;;;;;;;0.32;0.28;;;;;;;;;;5007965;28;20065;-72
2023/10/17 09:28:04;;;;;;;0.10;0.10;;;;;;;;;;4992893;28;20058;-73
2023/10/17 09:30:32;;;;;;;3.25;2.60;;;;;;;;;;5004521;28;20053;-71
2023/10/17 09:33:01;;;;;;;0.40;0.40;;;;;;;;;;5000021;28;20038;-72
2023/10/17 09:35:29;;;;;;;0.10;0.10;;;;;;;;;;5006140;28;20484;-72
2023/10/17 09:37:59;;;;;;;0.13;0.13;;;;;;;;;;4987763;28;20046;-72
2023/10/17 09:40:33;;;;;;;0.45;0.45;;;;;;;;;;5006014;28;20111;-72
2023/10/17 09:43:00;;;;;;;0.65;0.65;;;;;;;;;;5005210;28;20425;-72
2023/10/17 09:45:34;;;;;;;5.07;4.57;;;;;;;;;;5006579;28;20104;-72
2023/10/17 09:48:07;;;;;;;0.60;0.47;;;;;;;;;;5007786;28;20045;-72
2023/10/17 09:50:37;;;;;;;0.50;0.50;;;;;;;;;;5003979;28;20101;-71
2023/10/17 09:53:12;;;;;;;0.30;0.30;;;;;;;;;;5006519;28;20057;-72
2023/10/17 09:55:45;;;;;;;0.32;0.32;;;;;;;;;;5004940;28;20053;-72
2023/10/17 09:58:14;;;;;;;0.77;0.77;;;;;;;;;;5005591;28;20137;-72
2023/10/17 10:00:51;;;;;;;0.32;0.32;;;;;;;;;;5007614;28;20056;-71
2023/10/17 10:03:20;;;;;;;0.00;0.00;;;;;;;;;;5006474;28;20049;-71
2023/10/17 10:05:50;;;;;;;0.40;0.40;;;;;;;;;;5006346;28;20065;-73
2023/10/17 10:08:28;;;;;;;1.45;0.68;;;;;;;;;;5006310;28;20050;-73
2023/10/17 10:10:56;;;;;;;0.32;0.32;;;;;;;;;;5005301;28;20050;-72
2023/10/17 10:13:24;;;;;;;0.57;0.57;;;;;;;;;;5005764;28;20480;-73
2023/10/17 10:15:53;;;;;;;0.10;0.10;;;;;;;;;;5006871;28;20065;-72
2023/10/17 10:18:35;;;;;;;0.00;0.00;;;;;;;;;;5003517;28;20646;-71
2023/10/17 10:21:03;;;;;;;0.40;0.40;;;;;;;;;;5007148;28;20046;-72
2023/10/17 10:23:35;;;;;;;0.30;0.30;;;;;;;;;;5005018;28;20042;-72
2023/10/17 10:26:17;;;;;;;0.80;0.63;;;;;;;;;;5005034;28;20471;-72
2023/10/17 10:28:45;;;;;;;0.20;0.20;;;;;;;;;;5005201;28;20109;-72
2023/10/17 10:31:21;;;;;;;0.30;0.30;;;;;;;;;;5006642;28;20053;-72
2023/10/17 10:33:50;;;;;;;0.10;0.10;;;;;;;;;;5005346;28;20052;-71
2023/10/17 10:36:18;;;;;;;0.00;0.00;;;;;;;;;;5008181;28;20049;-72
2023/10/17 10:38:46;;;;;;;0.10;0.10;;;;;;;;;;4989132;28;20535;-71
2023/10/17 10:41:15;;;;;;;0.52;0.52;;;;;;;;;;5006634;28;20046;-72
2023/10/17 10:43:43;;;;;;;0.10;0.10;;;;;;;;;;5003832;28;20516;-71
2023/10/17 10:46:11;;;;;;;0.08;0.08;;;;;;;;;;5006371;28;20046;-72
2023/10/17 10:48:46;;;;;;;0.20;0.20;;;;;;;;;;5005942;28;20044;-71
2023/10/17 10:51:18;;;;;;;0.40;0.40;;;;;;;;;;5006231;28;20054;-72
2023/10/17 10:53:54;;;;;;;0.10;0.10;;;;;;;;;;5005546;28;20543;-71
2023/10/17 10:56:22;;;;;;;0.10;0.10;;;;;;;;;;4999957;28;20047;-73
2023/10/17 10:58:51;;;;;;;0.10;0.10;;;;;;;;;;5006302;28;20049;-72
2023/10/17 11:01:23;;;;;;;0.30;0.30;;;;;;;;;;5005638;28;20063;-72
2023/10/17 11:03:52;;;;;;;0.25;0.22;;;;;;;;;;5004968;28;20042;-71
2023/10/17 11:06:23;;;;;;;0.45;0.45;;;;;;;;;;5006185;28;20064;-73
2023/10/17 11:08:51;;;;;;;0.20;0.20;;;;;;;;;;5005478;28;20701;-71
2023/10/17 11:11:19;;;;;;;0.00;0.00;;;;;;;;;;5005478;28;20101;-72
2023/10/17 11:13:48;;;;;;;0.10;0.10;;;;;;;;;;5004777;28;20042;-71
2023/10/17 11:16:20;;;;;;;1.95;1.85;;;;;;;;;;5004191;28;20050;-72
2023/10/17 11:18:49;;;;;;;0.10;0.10;;;;;;;;;;5005631;28;20049;-72
2023/10/17 11:21:20;;;;;;;0.10;0.10;;;;;;;;;;5006777;28;20152;-73
2023/10/17 11:23:51;;;;;;;0.38;0.38;;;;;;;;;;5005299;28;20077;-72
2023/10/17 11:26:20;;;;;;;0.22;0.22;;;;;;;;;;5006855;28;20081;-72
2023/10/17 11:28:55;;;;;;;0.10;0.10;;;;;;;;;;5006385;28;20046;-72
2023/10/17 11:31:26;;;;;;;0.20;0.20;;;;;;;;;;5006506;28;20065;-73
2023/10/17 11:33:59;;;;;;;0.20;0.20;;;;;;;;;;5004912;28;20483;-72
2023/10/17 11:36:35;;;;;;;;;;;;;;;;;;5007174;28;20045;-71
2023/10/17 11:39:08;;;;;;;3.10;1.55;;;;;;;;;;5003813;28;19952;-73
2023/10/17 11:41:53;;;;;;;0.10;0.10;;;;;;;;;;5004620;28;20064;-72
2023/10/17 11:44:27;;;;;;;0.10;0.10;;;;;;;;;;5002368;28;20049;-73
2023/10/17 11:46:58;;;;;;;0.38;0.38;;;;;;;;;;5009044;28;20060;-72
2023/10/17 11:49:30;;;;;;;1.95;1.17;;;;;;;;;;5009291;28;20049;-73
2023/10/17 11:52:01;;;;;;;;;;;;;;;;;;5009386;28;20469;-72
2023/10/17 11:54:29;;;;;;;0.17;0.17;;;;;;;;;;5008959;28;19925;-73
2023/10/17 11:57:31;;;;;;;0.00;0.00;;;;;;;;;;5008392;28;20073;-73
2023/10/17 12:00:08;;;;;;;0.10;0.10;;;;;;;;;;5008110;28;20200;-72
2023/10/17 12:02:41;;;;;;;0.10;0.10;;;;;;;;;;5001441;28;20072;-72
2023/10/17 12:05:17;;;;;;;0.13;0.13;;;;;;;;;;5002081;28;20050;-72
2023/10/17 12:07:57;;;;;;;0.30;0.30;;;;;;;;;;5004810;28;20652;-73
2023/10/17 12:10:25;;;;;;;0.10;0.10;;;;;;;;;;5005036;28;20598;-72
2023/10/17 12:12:58;;;;;;;0.08;0.08;;;;;;;;;;5004885;28;20322;-72
2023/10/17 12:15:27;;;;;;;0.20;0.20;;;;;;;;;;5006702;28;20132;-71
2023/10/17 12:17:54;;;;;;;0.10;0.10;;;;;;;;;;5003247;28;20044;-73
2023/10/17 12:20:28;;;;;;;0.00;0.00;;;;;;;;;;5007559;28;20842;-72
2023/10/17 12:22:56;;;;;;;0.10;0.10;;;;;;;;;;5004177;28;20073;-72
2023/10/17 12:25:23;;;;;;;0.10;0.10;;;;;;;;;;5006443;28;20050;-72
2023/10/17 12:27:52;;;;;;;0.10;0.10;;;;;;;;;;5001148;28;20697;-71
2023/10/17 12:30:27;;;;;;;0.52;0.52;;;;;;;;;;5007546;28;20053;-72
2023/10/17 12:32:55;;;;;;;0.47;0.47;;;;;;;;;;5008422;28;20178;-72
2023/10/17 12:35:27;;;;;;;0.13;0.13;;;;;;;;;;5008972;28;20056;-72
2023/10/17 12:37:58;;;;;;;0.00;0.00;;;;;;;;;;5009168;28;20128;-72
2023/10/17 12:40:26;;;;;;;0.15;0.15;;;;;;;;;;5008648;28;20042;-71
2023/10/17 12:42:57;;;;;;;0.10;0.10;;;;;;;;;;5007204;28;20058;-72
2023/10/17 12:45:24;;;;;;;0.20;0.20;;;;;;;;;;5007751;28;20049;-71
2023/10/17 12:47:54;;;;;;;0.25;0.25;;;;;;;;;;5008964;28;20042;-72
2023/10/17 12:50:23;;;;;;;0.10;0.10;;;;;;;;;;5008695;28;20682;-71
2023/10/17 12:52:51;;;;;;;0.30;0.30;;;;;;;;;;5007240;28;21121;-72
2023/10/17 12:55:19;;;;;;;0.98;0.88;;;;;;;;;;5008085;28;20061;-71
2023/10/17 12:57:46;;;;;;;0.10;0.10;;;;;;;;;;5008354;28;20411;-71
2023/10/17 13:00:15;;;;;;;0.00;0.00;;;;;;;;;;5008796;28;20112;-71
2023/10/17 13:02:43;;;;;;;0.10;0.10;;;;;;;;;;5006256;28;20057;-72
2023/10/17 13:05:12;;;;;;;0.70;0.63;;;;;;;;;;5008278;28;20054;-71
2023/10/17 13:07:41;;;;;;;0.20;0.20;;;;;;;;;;5007836;28;20046;-71
2023/10/17 13:10:11;;;;;;;0.25;0.25;;;;;;;;;;5008110;28;20508;-71
2023/10/17 13:12:39;;;;;;;0.00;0.00;;;;;;;;;;5008041;28;20050;-71
2023/10/17 13:15:08;;;;;;;0.50;0.50;;;;;;;;;;5008567;28;20042;-71
2023/10/17 13:17:36;;;;;;;1.02;0.57;;;;;;;;;;5008356;28;20514;-71
2023/10/17 13:20:07;;;;;;;0.03;0.03;;;;;;;;;;5006708;28;20060;-77
2023/10/17 13:22:47;;;;;;;0.00;0.00;;;;;;;;;;4990046;28;20042;-76
2023/10/17 13:25:18;;;;;;;0.03;0.03;;;;;;;;;;5008529;28;20136;-76
2023/10/17 13:27:45;;;;;;;0.00;0.00;;;;;;;;;;5007710;28;20049;-74
2023/10/17 13:30:13;;;;;;;0.10;0.10;;;;;;;;;;5005928;28;20058;-76
2023/10/17 13:32:41;;;;;;;0.00;0.00;;;;;;;;;;5004620;28;20057;-75
2023/10/17 13:35:09;;;;;;;0.95;0.55;;;;;;;;;;5008390;28;20046;-75
2023/10/17 13:37:36;;;;;;;0.57;0.57;;;;;;;;;;5008203;28;20134;-76
2023/10/17 13:40:04;;;;;;;0.00;0.00;;;;;;;;;;5003239;28;20101;-75
2023/10/17 13:42:32;;;;;;;0.10;0.10;;;;;;;;;;5004709;28;20050;-76
2023/10/17 13:45:01;;;;;;;0.10;0.10;;;;;;;;;;5003987;28;20129;-73
2023/10/17 13:47:31;;;;;;;0.25;0.25;;;;;;;;;;5006961;28;20041;-72
2023/10/17 13:49:59;;;;;;;0.10;0.10;;;;;;;;;;5007097;28;20596;-72
2023/10/17 13:52:26;;;;;;;0.32;0.32;;;;;;;;;;5007393;28;20407;-73
2023/10/17 13:54:54;;;;;;;1.20;1.10;;;;;;;;;;5006250;28;20150;-71
2023/10/17 13:57:21;;;;;;;0.75;0.57;;;;;;;;;;5004768;28;20443;-71
2023/10/17 13:59:49;;;;;;;0.22;0.22;;;;;;;;;;5006859;28;20045;-72
2023/10/17 14:02:17;;;;;;;0.00;0.00;;;;;;;;;;4998413;28;20049;-75
2023/10/17 14:04:45;;;;;;;2.80;0.55;;;;;;;;;;5004320;28;20050;-71
2023/10/17 14:07:13;;;;;;;0.10;0.10;;;;;;;;;;5004182;28;20050;-71
2023/10/17 14:09:41;;;;;;;0.20;0.20;;;;;;;;;;5004407;28;20573;-72
2023/10/17 14:12:09;;;;;;;0.25;0.25;;;;;;;;;;5003773;28;20061;-72
2023/10/17 14:14:36;;;;;;;1.23;1.20;;;;;;;;;;5004866;28;20038;-72
2023/10/17 14:17:04;;;;;;;0.30;0.30;;;;;;;;;;4989796;28;20041;-73
2023/10/17 14:27:20;;;;;;;0.10;0.10;;;;;;;;;;5005157;28;20499;-72
2023/10/17 14:29:48;;;;;;;0.38;0.38;;;;;;;;;;5006866;28;20041;-72
2023/10/17 14:32:20;;;;;;;0.30;0.30;;;;;;;;;;5006568;28;20046;-77
2023/10/17 14:34:47;;;;;;;;;;;;;;;;;;5006067;28;20507;-72
2023/10/17 14:37:15;;;;;;;0.00;0.00;;;;;;;;;;5005715;28;19936;-72
2023/10/17 14:39:43;;;;;;;0.20;0.20;;;;;;;;;;5002444;28;20100;-73
2023/10/17 14:42:13;;;;;;;2.53;0.85;;;;;;;;;;5003748;28;20130;-74
2023/10/17 14:44:42;;;;;;;0.20;0.20;;;;;;;;;;4988710;28;20390;-69
2023/10/17 14:47:09;;;;;;;0.13;0.13;;;;;;;;;;5006191;28;20042;-70
2023/10/17 14:49:37;;;;;;;0.10;0.10;;;;;;;;;;5006514;28;20046;-70
2023/10/17 14:52:06;;;;;;;0.15;0.08;;;;;;;;;;5007133;28;20317;-70
2023/10/17 14:54:34;;;;;;;0.20;0.20;;;;;;;;;;5007176;28;20045;-69
2023/10/17 14:57:13;;;;;;;0.15;0.15;;;;;;;;;;5004099;28;20145;-75
2023/10/17 14:59:42;;;;;;;0.55;0.55;;;;;;;;;;4966108;28;20062;-74
2023/10/17 15:02:10;;;;;;;0.22;0.22;;;;;;;;;;4968202;28;20055;-74
2023/10/17 15:04:39;;;;;;;0.40;0.40;;;;;;;;;;4967960;28;20065;-74
2023/10/17 15:07:07;;;;;;;0.32;0.32;;;;;;;;;;4982890;28;20042;-74
2023/10/17 15:09:35;;;;;;;0.20;0.20;;;;;;;;;;4986827;28;20121;-75
2023/10/17 15:12:03;;;;;;;1.08;0.65;;;;;;;;;;4987046;28;20057;-74
2023/10/17 15:14:34;;;;;;;0.68;0.68;;;;;;;;;;4987083;28;20479;-74
2023/10/17 15:17:01;;;;;;;1.08;0.57;;;;;;;;;;4985096;28;20161;-75
2023/10/17 15:19:29;;;;;;;0.50;0.50;;;;;;;;;;4986287;28;20113;-76
2023/10/17 15:21:57;;;;;;;0.55;0.55;;;;;;;;;;4988345;28;20073;-75
2023/10/17 15:24:25;;;;;;;0.70;0.70;;;;;;;;;;4988824;28;20138;-75
2023/10/17 15:26:57;;;;;;;0.10;0.10;;;;;;;;;;4987502;28;20050;-74
2023/10/17 15:29:24;;;;;;;2.47;2.28;;;;;;;;;;4989721;28;20590;-74
2023/10/17 15:31:53;;;;;;;4.38;3.28;;;;;;;;;;4988312;28;20483;-75
2023/10/17 15:34:23;;;;;;;0.40;0.40;;;;;;;;;;4987908;28;20793;-76
2023/10/17 15:36:51;;;;;;;2.05;1.27;;;;;;;;;;4989497;28;20056;-76
2023/10/17 15:39:25;;;;;;;9.10;1.77;;;;;;;;;;4989457;28;20054;-75
2023/10/17 15:41:53;;;;;;;0.65;0.43;;;;;;;;;;4988948;28;20043;-76
2023/10/17 15:44:21;;;;;;;0.10;0.10;;;;;;;;;;4986326;28;20508;-74
2023/10/17 15:46:49;;;;;;;0.22;0.22;;;;;;;;;;4977714;28;20443;-75
2023/10/17 15:49:16;;;;;;;0.30;0.30;;;;;;;;;;4986955;28;20116;-74
2023/10/17 15:51:44;;;;;;;0.47;0.32;;;;;;;;;;4985653;28;20045;-74
2023/10/17 15:54:12;;;;;;;0.10;0.10;;;;;;;;;;4985886;28;20582;-75
2023/10/17 15:56:39;;;;;;;4.10;3.00;;;;;;;;;;4982984;28;20042;-75
2023/10/17 15:59:08;;;;;;;3.45;2.60;;;;;;;;;;4984679;28;20046;-75
2023/10/17 16:01:35;;;;;;;0.20;0.20;;;;;;;;;;4985699;28;20042;-74
2023/10/17 16:04:03;;;;;;;0.80;0.43;;;;;;;;;;4985845;28;20077;-73
2023/10/17 16:06:31;;;;;;;5.95;2.20;;;;;;;;;;4986916;28;20081;-73
2023/10/17 16:08:58;;;;;;;3.58;3.25;;;;;;;;;;4987836;28;20043;-74
2023/10/17 16:11:25;;;;;;;0.70;0.70;;;;;;;;;;4984582;28;20058;-73
2023/10/17 16:13:53;;;;;;;0.70;0.70;;;;;;;;;;4983884;28;20069;-73
2023/10/17 16:16:24;;;;;;;1.08;0.82;;;;;;;;;;4984980;28;20060;-73
2023/10/17 16:18:52;;;;;;;2.80;2.60;;;;;;;;;;4979175;28;20039;-74
2023/10/17 16:21:21;;;;;;;3.42;2.42;;;;;;;;;;4984279;28;20042;-74
2023/10/17 16:23:50;;;;;;;1.70;1.60;;;;;;;;;;4987642;28;20054;-74
2023/10/17 16:26:17;;;;;;;1.60;1.48;;;;;;;;;;4987104;28;20417;-74
2023/10/17 16:28:45;;;;;;;0.40;0.40;;;;;;;;;;4989287;28;20435;-74
2023/10/17 16:31:13;;;;;;;0.40;0.40;;;;;;;;;;4987966;28;20477;-74
2023/10/17 16:33:40;;;;;;;0.40;0.40;;;;;;;;;;4989591;28;20508;-74
2023/10/17 16:36:08;;;;;;;0.32;0.32;;;;;;;;;;4989744;28;20488;-74
2023/10/17 16:38:36;;;;;;;0.57;0.55;;;;;;;;;;4989349;28;20519;-74
2023/10/17 16:41:03;;;;;;;1.08;1.02;;;;;;;;;;4986801;28;20062;-74
2023/10/17 16:43:31;;;;;;;0.40;0.40;;;;;;;;;;4985115;28;20043;-74
2023/10/17 16:45:59;;;;;;;0.65;0.65;;;;;;;;;;4988925;28;20158;-74
2023/10/17 16:48:28;;;;;;;0.45;0.45;;;;;;;;;;4989991;28;20061;-75
2023/10/17 16:50:56;;;;;;;1.98;1.88;;;;;;;;;;4971572;28;20054;-75
2023/10/17 16:53:24;;;;;;;1.10;1.10;;;;;;;;;;4989614;28;20077;-78
2023/10/17 16:55:52;;;;;;;0.10;0.10;;;;;;;;;;4988179;28;20047;-75
2023/10/17 16:58:20;;;;;;;0.00;0.00;;;;;;;;;;4988728;28;20385;-75
2023/10/17 17:00:48;;;;;;;0.65;0.65;;;;;;;;;;4987855;28;20035;-75
2023/10/17 17:03:16;;;;;;;0.93;0.93;;;;;;;;;;4989035;28;20097;-75
2023/10/17 17:05:45;;;;;;;0.65;0.65;;;;;;;;;;4985495;28;20047;-75
2023/10/17 17:08:13;;;;;;;0.52;0.52;;;;;;;;;;4967936;28;20051;-77
2023/10/17 17:10:44;;;;;;;0.32;0.32;;;;;;;;;;4983359;28;20053;-75
2023/10/17 17:13:11;;;;;;;1.33;1.17;;;;;;;;;;4986061;28;20133;-74
2023/10/17 17:15:43;;;;;;;1.50;1.40;;;;;;;;;;4985943;28;20047;-74
2023/10/17 17:18:15;;;;;;;0.75;0.75;;;;;;;;;;4988349;28;20069;-75
2023/10/17 17:20:45;;;;;;;2.00;1.27;;;;;;;;;;4987211;28;20045;-75
2023/10/17 17:23:13;;;;;;;0.52;0.52;;;;;;;;;;4988008;28;20571;-74